sensor_id;sensor_type;location;lat;lon;timestamp;pressure;altitude;pressure_sealevel;temperature;humidity
57990;BME280;58373;51.824;5.564;2023-11-21T00:02:04;101008.81;;;7.00;100.00
57990;BME280;58373;51.824;5.564;2023-11-21T00:04:29;101007.13;;;6.99;100.00
57990;BME280;58373;51.824;5.564;2023-11-21T00:06:54;101013.31;;;6.96;100.00
57990;BME280;58373;51.824;5.564;2023-11-21T00:09:19;101013.50;;;6.93;100.00
57990;BME280;58373;51.824;5.564;2023-11-21T00:11:45;101012.88;;;6.89;100.00
57990;BME280;58373;51.824;5.564;2023-11-21T00:14:13;101010.38;;;6.88;100.00
57990;BME280;58373;51.824;5.564;2023-11-21T00:16:40;101017.50;;;6.84;100.00
57990;BME280;58373;51.824;5.564;2023-11-21T00:19:05;101023.59;;;6.83;100.00
57990;BME280;58373;51.824;5.564;2023-11-21T00:21:30;101017.78;;;6.80;100.00
57990;BME280;58373;51.824;5.564;2023-11-21T00:23:56;101020.47;;;6.78;100.00
57990;BME280;58373;51.824;5.564;2023-11-21T00:26:21;101014.47;;;6.78;100.00
57990;BME280;58373;51.824;5.564;2023-11-21T00:28:46;101022.09;;;6.79;100.00
57990;BME280;58373;51.824;5.564;2023-11-21T00:31:11;101018.81;;;6.77;100.00
57990;BME280;58373;51.824;5.564;2023-11-21T00:33:36;101013.84;;;6.74;100.00
57990;BME280;58373;51.824;5.564;2023-11-21T00:36:02;101021.84;;;6.70;100.00
57990;BME280;58373;51.824;5.564;2023-11-21T00:38:27;101016.06;;;6.66;100.00
57990;BME280;58373;51.824;5.564;2023-11-21T00:40:52;101023.06;;;6.64;100.00
57990;BME280;58373;51.824;5.564;2023-11-21T00:43:21;101019.94;;;6.59;100.00
57990;BME280;58373;51.824;5.564;2023-11-21T00:45:46;101026.13;;;6.56;100.00
57990;BME280;58373;51.824;5.564;2023-11-21T00:48:14;101030.63;;;6.53;100.00
57990;BME280;58373;51.824;5.564;2023-11-21T00:50:39;101035.03;;;6.51;100.00
57990;BME280;58373;51.824;5.564;2023-11-21T00:53:04;101039.47;;;6.49;100.00
57990;BME280;58373;51.824;5.564;2023-11-21T00:55:29;101033.50;;;6.48;100.00
57990;BME280;58373;51.824;5.564;2023-11-21T00:57:54;101029.34;;;6.46;100.00
57990;BME280;58373;51.824;5.564;2023-11-21T01:00:20;101039.66;;;6.46;100.00
57990;BME280;58373;51.824;5.564;2023-11-21T01:02:45;101049.97;;;6.46;100.00
57990;BME280;58373;51.824;5.564;2023-11-21T01:05:10;101038.81;;;6.45;100.00
57990;BME280;58373;51.824;5.564;2023-11-21T01:07:36;101046.44;;;6.47;100.00
57990;BME280;58373;51.824;5.564;2023-11-21T01:10:02;101044.81;;;6.46;100.00
57990;BME280;58373;51.824;5.564;2023-11-21T01:12:27;101053.47;;;6.45;100.00
57990;BME280;58373;51.824;5.564;2023-11-21T01:14:52;101058.50;;;6.46;100.00
57990;BME280;58373;51.824;5.564;2023-11-21T01:17:17;101067.06;;;6.47;100.00
57990;BME280;58373;51.824;5.564;2023-11-21T01:19:43;101063.56;;;6.48;100.00
57990;BME280;58373;51.824;5.564;2023-11-21T01:22:08;101064.59;;;6.45;100.00
57990;BME280;58373;51.824;5.564;2023-11-21T01:24:34;101070.56;;;6.46;100.00
57990;BME280;58373;51.824;5.564;2023-11-21T01:26:59;101077.38;;;6.47;100.00
57990;BME280;58373;51.824;5.564;2023-11-21T01:29:24;101075.91;;;6.43;100.00
57990;BME280;58373;51.824;5.564;2023-11-21T01:31:49;101074.25;;;6.42;100.00
57990;BME280;58373;51.824;5.564;2023-11-21T01:34:15;101079.41;;;6.42;100.00
57990;BME280;58373;51.824;5.564;2023-11-21T01:36:40;101077.75;;;6.41;100.00
57990;BME280;58373;51.824;5.564;2023-11-21T01:39:05;101082.91;;;6.41;100.00
57990;BME280;58373;51.824;5.564;2023-11-21T01:41:36;101082.91;;;6.41;100.00
57990;BME280;58373;51.824;5.564;2023-11-21T01:44:01;101081.25;;;6.39;100.00
57990;BME280;58373;51.824;5.564;2023-11-21T01:46:27;101074.44;;;6.38;100.00
57990;BME280;58373;51.824;5.564;2023-11-21T01:48:54;101077.13;;;6.37;100.00
57990;BME280;58373;51.824;5.564;2023-11-21T01:51:19;101076.25;;;6.36;100.00
57990;BME280;58373;51.824;5.564;2023-11-21T01:53:44;101085.75;;;6.36;100.00
57990;BME280;58373;51.824;5.564;2023-11-21T01:56:11;101090.06;;;6.35;100.00
57990;BME280;58373;51.824;5.564;2023-11-21T01:58:37;101085.94;;;6.33;100.00
57990;BME280;58373;51.824;5.564;2023-11-21T02:01:02;101086.03;;;6.31;100.00
57990;BME280;58373;51.824;5.564;2023-11-21T02:03:27;101089.50;;;6.30;100.00
57990;BME280;58373;51.824;5.564;2023-11-21T02:05:53;101093.94;;;6.28;100.00
57990;BME280;58373;51.824;5.564;2023-11-21T02:08:18;101087.13;;;6.27;100.00
57990;BME280;58373;51.824;5.564;2023-11-21T02:10:44;101092.28;;;6.27;100.00
57990;BME280;58373;51.824;5.564;2023-11-21T02:13:09;101095.78;;;6.26;100.00
57990;BME280;58373;51.824;5.564;2023-11-21T02:15:35;101096.72;;;6.25;100.00
57990;BME280;58373;51.824;5.564;2023-11-21T02:18:01;101107.00;;;6.25;100.00
57990;BME280;58373;51.824;5.564;2023-11-21T02:20:28;101097.59;;;6.24;100.00
57990;BME280;58373;51.824;5.564;2023-11-21T02:22:55;101098.53;;;6.23;100.00
57990;BME280;58373;51.824;5.564;2023-11-21T02:25:26;101107.91;;;6.24;100.00
57990;BME280;58373;51.824;5.564;2023-11-21T02:27:55;101109.75;;;6.22;100.00
57990;BME280;58373;51.824;5.564;2023-11-21T02:30:21;101111.59;;;6.20;100.00
57990;BME280;58373;51.824;5.564;2023-11-21T02:32:47;101120.06;;;6.22;100.00
57990;BME280;58373;51.824;5.564;2023-11-21T02:35:13;101118.56;;;6.18;100.00
57990;BME280;58373;51.824;5.564;2023-11-21T02:37:38;101124.53;;;6.19;100.00
57990;BME280;58373;51.824;5.564;2023-11-21T02:40:04;101118.56;;;6.18;100.00
57990;BME280;58373;51.824;5.564;2023-11-21T02:42:31;101116.75;;;6.20;100.00
57990;BME280;58373;51.824;5.564;2023-11-21T02:44:56;101121.91;;;6.20;100.00
57990;BME280;58373;51.824;5.564;2023-11-21T02:47:22;101121.91;;;6.20;100.00
57990;BME280;58373;51.824;5.564;2023-11-21T02:49:47;101119.31;;;6.20;100.00
57990;BME280;58373;51.824;5.564;2023-11-21T02:52:12;101111.59;;;6.20;100.00
57990;BME280;58373;51.824;5.564;2023-11-21T02:54:37;101126.13;;;6.21;100.00
57990;BME280;58373;51.824;5.564;2023-11-21T02:57:02;101121.06;;;6.20;100.00
57990;BME280;58373;51.824;5.564;2023-11-21T02:59:28;101125.22;;;6.22;100.00
57990;BME280;58373;51.824;5.564;2023-11-21T03:01:53;101119.88;;;6.25;100.00
57990;BME280;58373;51.824;5.564;2023-11-21T03:04:18;101129.34;;;6.25;100.00
57990;BME280;58373;51.824;5.564;2023-11-21T03:06:44;101118.41;;;6.21;100.00
57990;BME280;58373;51.824;5.564;2023-11-21T03:09:10;101120.78;;;6.24;100.00
57990;BME280;58373;51.824;5.564;2023-11-21T03:11:37;101126.69;;;6.26;100.00
57990;BME280;58373;51.824;5.564;2023-11-21T03:14:02;101127.63;;;6.25;100.00
57990;BME280;58373;51.824;5.564;2023-11-21T03:16:27;101125.94;;;6.24;100.00
57990;BME280;58373;51.824;5.564;2023-11-21T03:18:53;101134.41;;;6.26;100.00
57990;BME280;58373;51.824;5.564;2023-11-21T03:21:19;101138.66;;;6.27;100.00
57990;BME280;58373;51.824;5.564;2023-11-21T03:23:44;101138.66;;;6.27;100.00
57990;BME280;58373;51.824;5.564;2023-11-21T03:26:11;101133.50;;;6.27;100.00
57990;BME280;58373;51.824;5.564;2023-11-21T03:28:37;101134.41;;;6.26;100.00
57990;BME280;58373;51.824;5.564;2023-11-21T03:31:02;101138.66;;;6.27;100.00
57990;BME280;58373;51.824;5.564;2023-11-21T03:33:28;101140.31;;;6.28;100.00
57990;BME280;58373;51.824;5.564;2023-11-21T03:35:53;101144.63;;;6.28;100.00
57990;BME280;58373;51.824;5.564;2023-11-21T03:38:18;101139.56;;;6.26;100.00
57990;BME280;58373;51.824;5.564;2023-11-21T03:40:43;101141.22;;;6.27;100.00
57990;BME280;58373;51.824;5.564;2023-11-21T03:43:08;101142.16;;;6.26;100.00
57990;BME280;58373;51.824;5.564;2023-11-21T03:45:34;101137.00;;;6.26;100.00
57990;BME280;58373;51.824;5.564;2023-11-21T03:47:59;101137.00;;;6.26;100.00
57990;BME280;58373;51.824;5.564;2023-11-21T03:50:26;101140.50;;;6.25;100.00
57990;BME280;58373;51.824;5.564;2023-11-21T03:52:51;101140.50;;;6.25;100.00
57990;BME280;58373;51.824;5.564;2023-11-21T03:55:17;101142.16;;;6.26;100.00
57990;BME280;58373;51.824;5.564;2023-11-21T03:57:42;101140.50;;;6.25;100.00
57990;BME280;58373;51.824;5.564;2023-11-21T04:00:07;101153.28;;;6.27;100.00
57990;BME280;58373;51.824;5.564;2023-11-21T04:02:34;101150.81;;;6.25;100.00
57990;BME280;58373;51.824;5.564;2023-11-21T04:04:59;101149.94;;;6.25;100.00
57990;BME280;58373;51.824;5.564;2023-11-21T04:07:24;101155.94;;;6.25;100.00
57990;BME280;58373;51.824;5.564;2023-11-21T04:09:49;101157.59;;;6.26;100.00
57990;BME280;58373;51.824;5.564;2023-11-21T04:12:14;101161.00;;;6.27;100.00
57990;BME280;58373;51.824;5.564;2023-11-21T04:14:40;101157.50;;;6.28;100.00
57990;BME280;58373;51.824;5.564;2023-11-21T04:17:05;101162.56;;;6.29;100.00
57990;BME280;58373;51.824;5.564;2023-11-21T04:19:30;101170.22;;;6.31;100.00
57990;BME280;58373;51.824;5.564;2023-11-21T04:21:55;101171.03;;;6.31;100.00
57990;BME280;58373;51.824;5.564;2023-11-21T04:24:20;101169.19;;;6.33;100.00
57990;BME280;58373;51.824;5.564;2023-11-21T04:26:46;101174.34;;;6.33;100.00
57990;BME280;58373;51.824;5.564;2023-11-21T04:29:11;101174.34;;;6.33;100.00
57990;BME280;58373;51.824;5.564;2023-11-21T04:31:37;101187.97;;;6.35;100.00
57990;BME280;58373;51.824;5.564;2023-11-21T04:34:02;101194.75;;;6.36;100.00
57990;BME280;58373;51.824;5.564;2023-11-21T04:36:29;101200.69;;;6.38;100.00
57990;BME280;58373;51.824;5.564;2023-11-21T04:38:55;101202.44;;;6.38;100.00
57990;BME280;58373;51.824;5.564;2023-11-21T04:41:20;101200.59;;;6.40;100.00
57990;BME280;58373;51.824;5.564;2023-11-21T04:43:46;101211.72;;;6.41;100.00
57990;BME280;58373;51.824;5.564;2023-11-21T04:46:11;101194.59;;;6.39;100.00
57990;BME280;58373;51.824;5.564;2023-11-21T04:48:36;101209.13;;;6.41;100.00
57990;BME280;58373;51.824;5.564;2023-11-21T04:51:01;101202.22;;;6.41;100.00
57990;BME280;58373;51.824;5.564;2023-11-21T04:53:26;101209.91;;;6.43;100.00
57990;BME280;58373;51.824;5.564;2023-11-21T04:55:51;101213.38;;;6.42;100.00
57990;BME280;58373;51.824;5.564;2023-11-21T04:58:17;101214.28;;;6.41;100.00
57990;BME280;58373;51.824;5.564;2023-11-21T05:00:44;101224.50;;;6.42;100.00
57990;BME280;58373;51.824;5.564;2023-11-21T05:03:09;101226.25;;;6.42;100.00
57990;BME280;58373;51.824;5.564;2023-11-21T05:05:34;101233.97;;;6.42;100.00
57990;BME280;58373;51.824;5.564;2023-11-21T05:07:59;101232.31;;;6.41;100.00
57990;BME280;58373;51.824;5.564;2023-11-21T05:10:26;101235.72;;;6.41;100.00
57990;BME280;58373;51.824;5.564;2023-11-21T05:12:51;101236.66;;;6.40;100.00
57990;BME280;58373;51.824;5.564;2023-11-21T05:15:16;101242.63;;;6.41;100.00
57990;BME280;58373;51.824;5.564;2023-11-21T05:17:44;101240.97;;;6.39;100.00
57990;BME280;58373;51.824;5.564;2023-11-21T05:20:11;101246.13;;;6.39;100.00
57990;BME280;58373;51.824;5.564;2023-11-21T05:22:37;101241.91;;;6.38;100.00
57990;BME280;58373;51.824;5.564;2023-11-21T05:25:02;101241.91;;;6.38;100.00
57990;BME280;58373;51.824;5.564;2023-11-21T05:27:29;101240.06;;;6.41;100.00
57990;BME280;58373;51.824;5.564;2023-11-21T05:29:54;101249.44;;;6.42;100.00
57990;BME280;58373;51.824;5.564;2023-11-21T05:32:20;101248.53;;;6.43;100.00
57990;BME280;58373;51.824;5.564;2023-11-21T05:34:45;101261.44;;;6.43;100.00
57990;BME280;58373;51.824;5.564;2023-11-21T05:37:10;101249.44;;;6.42;100.00
57990;BME280;58373;51.824;5.564;2023-11-21T05:39:38;101252.94;;;6.41;100.00
57990;BME280;58373;51.824;5.564;2023-11-21T05:42:03;101260.66;;;6.41;100.00
57990;BME280;58373;51.824;5.564;2023-11-21T05:44:29;101266.75;;;6.39;100.00
57990;BME280;58373;51.824;5.564;2023-11-21T05:46:54;101277.97;;;6.38;100.00
57990;BME280;58373;51.824;5.564;2023-11-21T05:49:20;101278.88;;;6.37;100.00
57990;BME280;58373;51.824;5.564;2023-11-21T05:51:46;101280.53;;;6.38;100.00
57990;BME280;58373;51.824;5.564;2023-11-21T05:54:12;101282.34;;;6.36;100.00
57990;BME280;58373;51.824;5.564;2023-11-21T05:56:37;101291.84;;;6.36;100.00
57990;BME280;58373;51.824;5.564;2023-11-21T05:59:02;101283.28;;;6.35;100.00
57990;BME280;58373;51.824;5.564;2023-11-21T06:01:28;101286.63;;;6.37;100.00
57990;BME280;58373;51.824;5.564;2023-11-21T06:03:53;101295.09;;;6.39;100.00
57990;BME280;58373;51.824;5.564;2023-11-21T06:06:19;101295.81;;;6.42;100.00
57990;BME280;58373;51.824;5.564;2023-11-21T06:08:45;101294.91;;;6.43;100.00
57990;BME280;58373;51.824;5.564;2023-11-21T06:11:10;101296.63;;;6.42;100.00
57990;BME280;58373;51.824;5.564;2023-11-21T06:13:36;101300.06;;;6.43;100.00
57990;BME280;58373;51.824;5.564;2023-11-21T06:16:01;101305.13;;;6.44;100.00
57990;BME280;58373;51.824;5.564;2023-11-21T06:18:26;101308.44;;;6.46;100.00
57990;BME280;58373;51.824;5.564;2023-11-21T06:20:52;101307.63;;;6.46;100.00
57990;BME280;58373;51.824;5.564;2023-11-21T06:23:18;101312.75;;;6.46;100.00
57990;BME280;58373;51.824;5.564;2023-11-21T06:25:43;101309.28;;;6.47;100.00
57990;BME280;58373;51.824;5.564;2023-11-21T06:28:08;101319.56;;;6.47;100.00
57990;BME280;58373;51.824;5.564;2023-11-21T06:30:33;101318.75;;;6.46;100.00
57990;BME280;58373;51.824;5.564;2023-11-21T06:32:59;101319.56;;;6.47;100.00
57990;BME280;58373;51.824;5.564;2023-11-21T06:35:24;101322.91;;;6.49;100.00
57990;BME280;58373;51.824;5.564;2023-11-21T06:37:49;101322.91;;;6.49;100.00
57990;BME280;58373;51.824;5.564;2023-11-21T06:40:16;101327.16;;;6.50;100.00
57990;BME280;58373;51.824;5.564;2023-11-21T06:42:43;101321.06;;;6.51;100.00
57990;BME280;58373;51.824;5.564;2023-11-21T06:45:09;101321.91;;;6.51;100.00
57990;BME280;58373;51.824;5.564;2023-11-21T06:47:35;101327.88;;;6.52;100.00
57990;BME280;58373;51.824;5.564;2023-11-21T06:50:01;101328.72;;;6.52;100.00
57990;BME280;58373;51.824;5.564;2023-11-21T06:52:26;101329.53;;;6.53;100.00
57990;BME280;58373;51.824;5.564;2023-11-21T06:54:51;101326.91;;;6.54;100.00
57990;BME280;58373;51.824;5.564;2023-11-21T06:57:16;101332.06;;;6.54;100.00
57990;BME280;58373;51.824;5.564;2023-11-21T06:59:42;101335.44;;;6.55;100.00
57990;BME280;58373;51.824;5.564;2023-11-21T07:02:07;101333.69;;;6.55;100.00
57990;BME280;58373;51.824;5.564;2023-11-21T07:04:33;101345.66;;;6.56;100.00
57990;BME280;58373;51.824;5.564;2023-11-21T07:06:58;101344.75;;;6.57;100.00
57990;BME280;58373;51.824;5.564;2023-11-21T07:09:23;101348.16;;;6.58;100.00
57990;BME280;58373;51.824;5.564;2023-11-21T07:11:50;101356.66;;;6.60;100.00
57990;BME280;58373;51.824;5.564;2023-11-21T07:14:16;101358.31;;;6.61;100.00
57990;BME280;58373;51.824;5.564;2023-11-21T07:16:44;101363.47;;;6.61;100.00
57990;BME280;58373;51.824;5.564;2023-11-21T07:19:10;101370.25;;;6.62;100.00
57990;BME280;58373;51.824;5.564;2023-11-21T07:21:35;101361.59;;;6.63;100.00
57990;BME280;58373;51.824;5.564;2023-11-21T07:24:01;101375.22;;;6.65;100.00
57990;BME280;58373;51.824;5.564;2023-11-21T07:26:26;101378.56;;;6.67;100.00
57990;BME280;58373;51.824;5.564;2023-11-21T07:28:52;101389.63;;;6.69;100.00
57990;BME280;58373;51.824;5.564;2023-11-21T07:31:17;101381.97;;;6.68;100.00
57990;BME280;58373;51.824;5.564;2023-11-21T07:33:42;101383.47;;;6.72;100.00
57990;BME280;58373;51.824;5.564;2023-11-21T07:36:08;101388.53;;;6.73;100.00
57990;BME280;58373;51.824;5.564;2023-11-21T07:38:33;101389.28;;;6.75;100.00
57990;BME280;58373;51.824;5.564;2023-11-21T07:40:58;101391.84;;;6.75;100.00
57990;BME280;58373;51.824;5.564;2023-11-21T07:43:26;101407.31;;;6.75;100.00
57990;BME280;58373;51.824;5.564;2023-11-21T07:45:51;101402.00;;;6.78;100.00
57990;BME280;58373;51.824;5.564;2023-11-21T07:48:16;101404.47;;;6.80;100.00
57990;BME280;58373;51.824;5.564;2023-11-21T07:50:41;101412.13;;;6.81;100.00
57990;BME280;58373;51.824;5.564;2023-11-21T07:53:06;101418.94;;;6.82;100.00
57990;BME280;58373;51.824;5.564;2023-11-21T07:55:31;101411.97;;;6.84;100.00
57990;BME280;58373;51.824;5.564;2023-11-21T07:57:58;101405.97;;;6.84;100.00
57990;BME280;58373;51.824;5.564;2023-11-21T08:00:23;101417.94;;;6.85;100.00
57990;BME280;58373;51.824;5.564;2023-11-21T08:02:49;101420.44;;;6.86;100.00
57990;BME280;58373;51.824;5.564;2023-11-21T08:05:14;101416.94;;;6.87;100.00
57990;BME280;58373;51.824;5.564;2023-11-21T08:07:40;101422.84;;;6.89;100.00
57990;BME280;58373;51.824;5.564;2023-11-21T08:10:05;101426.16;;;6.91;100.00
57990;BME280;58373;51.824;5.564;2023-11-21T08:12:32;101424.41;;;6.92;100.00
57990;BME280;58373;51.824;5.564;2023-11-21T08:14:57;101438.06;;;6.94;100.00
57990;BME280;58373;51.824;5.564;2023-11-21T08:17:22;101442.22;;;6.97;100.00
57990;BME280;58373;51.824;5.564;2023-11-21T08:19:48;101440.38;;;6.99;100.00
57990;BME280;58373;51.824;5.564;2023-11-21T08:22:17;101443.72;;;7.01;100.00
57990;BME280;58373;51.824;5.564;2023-11-21T08:24:43;101453.84;;;7.04;100.00
57990;BME280;58373;51.824;5.564;2023-11-21T08:27:08;101447.69;;;7.06;100.00
57990;BME280;58373;51.824;5.564;2023-11-21T08:29:33;101451.72;;;7.10;100.00
57990;BME280;58373;51.824;5.564;2023-11-21T08:31:59;101453.31;;;7.13;100.00
57990;BME280;58373;51.824;5.564;2023-11-21T08:34:25;101454.81;;;7.17;100.00
57990;BME280;58373;51.824;5.564;2023-11-21T08:36:50;101456.28;;;7.21;100.00
57990;BME280;58373;51.824;5.564;2023-11-21T08:39:16;101462.94;;;7.25;100.00
57990;BME280;58373;51.824;5.564;2023-11-21T08:41:43;101457.59;;;7.28;100.00
57990;BME280;58373;51.824;5.564;2023-11-21T08:44:09;101459.06;;;7.32;100.00
57990;BME280;58373;51.824;5.564;2023-11-21T08:46:34;101470.06;;;7.36;100.00
57990;BME280;58373;51.824;5.564;2023-11-21T08:49:02;101478.44;;;7.39;100.00
57990;BME280;58373;51.824;5.564;2023-11-21T08:51:27;101486.03;;;7.42;100.00
57990;BME280;58373;51.824;5.564;2023-11-21T08:53:53;101490.16;;;7.45;100.00
57990;BME280;58373;51.824;5.564;2023-11-21T08:56:18;101496.00;;;7.49;100.00
57990;BME280;58373;51.824;5.564;2023-11-21T08:58:44;101497.47;;;7.53;100.00
57990;BME280;58373;51.824;5.564;2023-11-21T09:01:10;101500.78;;;7.55;100.00
57990;BME280;58373;51.824;5.564;2023-11-21T09:03:36;101495.63;;;7.55;100.00
57990;BME280;58373;51.824;5.564;2023-11-21T09:06:02;101503.94;;;7.60;100.00
57990;BME280;58373;51.824;5.564;2023-11-21T09:08:28;101507.25;;;7.62;100.00
57990;BME280;58373;51.824;5.564;2023-11-21T09:10:54;101511.41;;;7.64;100.00
57990;BME280;58373;51.824;5.564;2023-11-21T09:13:19;101513.09;;;7.65;100.00
57990;BME280;58373;51.824;5.564;2023-11-21T09:15:44;101515.56;;;7.67;100.00
57990;BME280;58373;51.824;5.564;2023-11-21T09:18:12;101520.56;;;7.70;100.00
57990;BME280;58373;51.824;5.564;2023-11-21T09:20:38;101517.06;;;7.71;100.00
57990;BME280;58373;51.824;5.564;2023-11-21T09:23:03;101522.03;;;7.74;100.00
57990;BME280;58373;51.824;5.564;2023-11-21T09:25:28;101521.84;;;7.77;100.00
57990;BME280;58373;51.824;5.564;2023-11-21T09:27:54;101533.84;;;7.78;100.00
57990;BME280;58373;51.824;5.564;2023-11-21T09:30:19;101531.09;;;7.81;100.00
57990;BME280;58373;51.824;5.564;2023-11-21T09:32:44;101536.00;;;7.86;100.00
57990;BME280;58373;51.824;5.564;2023-11-21T09:35:10;101540.13;;;7.88;100.00
57990;BME280;58373;51.824;5.564;2023-11-21T09:37:36;101543.38;;;7.92;100.00
57990;BME280;58373;51.824;5.564;2023-11-21T09:40:03;101544.94;;;7.94;100.00
57990;BME280;58373;51.824;5.564;2023-11-21T09:42:42;101549.94;;;7.97;100.00
57990;BME280;58373;51.824;5.564;2023-11-21T09:45:23;101558.31;;;8.01;100.00
57990;BME280;58373;51.824;5.564;2023-11-21T09:47:50;101556.41;;;8.05;100.00
57990;BME280;58373;51.824;5.564;2023-11-21T09:50:17;101567.47;;;8.07;100.00
57990;BME280;58373;51.824;5.564;2023-11-21T09:53:28;101562.13;;;8.10;100.00
57990;BME280;58373;51.824;5.564;2023-11-21T09:55:40;101569.69;;;8.13;100.00
57990;BME280;58373;51.824;5.564;2023-11-21T09:58:07;101578.19;;;8.15;100.00
57990;BME280;58373;51.824;5.564;2023-11-21T10:00:36;101585.75;;;8.18;100.00
57990;BME280;58373;51.824;5.564;2023-11-21T10:03:02;101575.31;;;8.19;100.00
57990;BME280;58373;51.824;5.564;2023-11-21T10:05:28;101583.81;;;8.21;100.00
57990;BME280;58373;51.824;5.564;2023-11-21T10:07:53;101583.72;;;8.23;100.00
57990;BME280;58373;51.824;5.564;2023-11-21T10:10:22;101586.13;;;8.26;100.00
57990;BME280;58373;51.824;5.564;2023-11-21T10:12:48;101590.19;;;8.30;100.00
57990;BME280;58373;51.824;5.564;2023-11-21T10:15:14;101590.94;;;8.32;100.00
57990;BME280;58373;51.824;5.564;2023-11-21T10:17:41;101596.78;;;8.36;100.00
57990;BME280;58373;51.824;5.564;2023-11-21T10:20:12;101605.19;;;8.39;100.00
57990;BME280;58373;51.824;5.564;2023-11-21T10:22:39;101605.75;;;8.44;100.00
57990;BME280;58373;51.824;5.564;2023-11-21T10:25:06;101614.88;;;8.50;100.00
57990;BME280;58373;51.824;5.564;2023-11-21T10:27:33;101617.38;;;8.51;100.00
57990;BME280;58373;51.824;5.564;2023-11-21T10:29:58;101619.03;;;8.52;100.00
57990;BME280;58373;51.824;5.564;2023-11-21T10:32:27;101620.88;;;8.50;100.00
57990;BME280;58373;51.824;5.564;2023-11-21T10:34:56;101631.03;;;8.54;100.00
57990;BME280;58373;51.824;5.564;2023-11-21T10:37:22;101636.84;;;8.57;100.00
57990;BME280;58373;51.824;5.564;2023-11-21T10:39:47;101636.19;;;8.54;100.00
57990;BME280;58373;51.824;5.564;2023-11-21T10:42:12;101632.06;;;8.51;100.00
57990;BME280;58373;51.824;5.564;2023-11-21T10:44:37;101644.16;;;8.50;100.00
57990;BME280;58373;51.824;5.564;2023-11-21T10:47:02;101629.56;;;8.49;100.00
57990;BME280;58373;51.824;5.564;2023-11-21T10:49:28;101620.13;;;8.48;100.00
57990;BME280;58373;51.824;5.564;2023-11-21T10:51:53;101628.63;;;8.50;100.00
57990;BME280;58373;51.824;5.564;2023-11-21T10:54:19;101638.06;;;8.51;100.00
57990;BME280;58373;51.824;5.564;2023-11-21T10:56:45;101625.13;;;8.51;100.00
57990;BME280;58373;51.824;5.564;2023-11-21T10:59:12;101626.06;;;8.50;100.00
57990;BME280;58373;51.824;5.564;2023-11-21T11:01:40;101634.53;;;8.52;100.00
57990;BME280;58373;51.824;5.564;2023-11-21T11:04:08;101637.03;;;8.54;100.00
57990;BME280;58373;51.824;5.564;2023-11-21T11:06:39;101656.72;;;8.57;100.00
57990;BME280;58373;51.824;5.564;2023-11-21T11:09:05;101654.22;;;8.55;100.00
57990;BME280;58373;51.824;5.564;2023-11-21T11:11:33;101661.22;;;8.53;100.00
57990;BME280;58373;51.824;5.564;2023-11-21T11:13:58;101658.56;;;8.55;100.00
57990;BME280;58373;51.824;5.564;2023-11-21T11:16:25;101670.56;;;8.56;100.00
57990;BME280;58373;51.824;5.564;2023-11-21T11:18:51;101666.84;;;8.60;100.00
57990;BME280;58373;51.824;5.564;2023-11-21T11:29:08;101677.75;;;8.65;100.00
57990;BME280;58373;51.824;5.564;2023-11-21T11:31:46;101681.09;;;8.67;100.00
57990;BME280;58373;51.824;5.564;2023-11-21T11:36:44;101677.59;;;8.68;100.00
57990;BME280;58373;51.824;5.564;2023-11-21T11:39:28;101685.34;;;8.68;100.00
57990;BME280;58373;51.824;5.564;2023-11-21T11:41:57;101688.88;;;8.67;100.00
57990;BME280;58373;51.824;5.564;2023-11-21T11:44:46;101688.09;;;8.65;100.00
57990;BME280;58373;51.824;5.564;2023-11-21T11:50:05;101694.31;;;8.62;100.00
57990;BME280;58373;51.824;5.564;2023-11-21T11:52:48;101704.75;;;8.61;100.00
57990;BME280;58373;51.824;5.564;2023-11-21T11:55:16;101703.91;;;8.60;100.00
57990;BME280;58373;51.824;5.564;2023-11-21T11:57:44;101708.22;;;8.60;100.00
57990;BME280;58373;51.824;5.564;2023-11-21T12:00:10;101720.25;;;8.61;100.00
57990;BME280;58373;51.824;5.564;2023-11-21T12:02:36;101720.44;;;8.58;100.00
57990;BME280;58373;51.824;5.564;2023-11-21T12:05:07;101723.94;;;8.57;100.00
57990;BME280;58373;51.824;5.564;2023-11-21T12:10:18;101724.75;;;8.57;100.00
57990;BME280;58373;51.824;5.564;2023-11-21T12:12:48;101732.44;;;8.59;100.00
57990;BME280;58373;51.824;5.564;2023-11-21T12:15:13;101736.78;;;8.58;100.00
57990;BME280;58373;51.824;5.564;2023-11-21T12:17:42;101732.44;;;8.59;100.00
57990;BME280;58373;51.824;5.564;2023-11-21T12:20:08;101730.75;;;8.58;100.00
57990;BME280;58373;51.824;5.564;2023-11-21T12:22:52;101741.22;;;8.56;100.00
57990;BME280;58373;51.824;5.564;2023-11-21T12:25:18;101746.28;;;8.58;100.00
57990;BME280;58373;51.824;5.564;2023-11-21T12:27:47;101739.44;;;8.57;100.00
57990;BME280;58373;51.824;5.564;2023-11-21T12:30:14;101753.22;;;8.57;100.00
57990;BME280;58373;51.824;5.564;2023-11-21T12:32:40;101756.63;;;8.58;100.00
57990;BME280;58373;51.824;5.564;2023-11-21T12:35:06;101752.94;;;8.62;100.00
57990;BME280;58373;51.824;5.564;2023-11-21T12:37:32;101756.09;;;8.67;100.00
57990;BME280;58373;51.824;5.564;2023-11-21T12:39:57;101750.72;;;8.70;100.00
57990;BME280;58373;51.824;5.564;2023-11-21T12:42:23;101752.31;;;8.72;100.00
57990;BME280;58373;51.824;5.564;2023-11-21T12:44:48;101759.88;;;8.75;100.00
57990;BME280;58373;51.824;5.564;2023-11-21T12:47:16;101767.53;;;8.77;100.00
57990;BME280;58373;51.824;5.564;2023-11-21T12:49:41;101763.31;;;8.76;100.00
57990;BME280;58373;51.824;5.564;2023-11-21T12:52:09;101773.75;;;8.74;100.00
57990;BME280;58373;51.824;5.564;2023-11-21T12:54:34;101771.06;;;8.76;100.00
57990;BME280;58373;51.824;5.564;2023-11-21T12:57:00;101767.75;;;8.74;100.00
57990;BME280;58373;51.824;5.564;2023-11-21T12:59:26;101764.22;;;8.75;100.00
57990;BME280;58373;51.824;5.564;2023-11-21T13:01:51;101761.47;;;8.78;100.00